Time;durP1;ratioP1;P1;durP2;ratioP2;P2;SDS_P1;SDS_P2;PMS_P1;PMS_P2;Temp;Humidity;BMP_temperature;BMP_pressure;BME280_temperature;BME280_humidity;BME280_pressure;Samples;Min_cycle;Max_cycle;Signal;HPM_P1;HPM_P2
2023/03/28 00:01:12;;;;;;;10.00;2.50;;;;;;;0.71;100.00;102501.75;5059894;28;20055;-60
2023/03/28 00:03:42;;;;;;;10.63;2.42;;;;;;;0.71;100.00;102499.19;5056330;28;20040;-61
2023/03/28 00:06:12;;;;;;;11.27;2.60;;;;;;;0.69;100.00;102497.44;5059985;28;20503;-60
2023/03/28 00:08:41;;;;;;;9.48;3.22;;;;;;;0.64;100.00;102497.41;5057473;28;20091;-60
2023/03/28 00:11:18;;;;;;;8.65;2.83;;;;;;;0.72;100.00;102497.44;5057655;28;20044;-60
2023/03/28 00:13:47;;;;;;;9.32;2.83;;;;;;;0.62;100.00;102492.22;5054228;28;20070;-61
2023/03/28 00:16:16;;;;;;;8.13;2.40;;;;;;;0.57;100.00;102495.66;5054214;28;20041;-61
2023/03/28 00:18:45;;;;;;;10.43;2.30;;;;;;;0.55;100.00;102497.41;5049354;28;20449;-60
2023/03/28 00:21:25;;;;;;;11.20;2.72;;;;;;;0.45;100.00;102489.59;5062312;28;20052;-61
2023/03/28 00:23:54;;;;;;;10.13;2.53;;;;;;;0.50;100.00;102494.78;5055012;28;20427;-61
2023/03/28 00:26:25;;;;;;;6.28;2.40;;;;;;;0.46;100.00;102491.34;5065103;28;20499;-60
2023/03/28 00:28:55;;;;;;;13.93;2.80;;;;;;;0.46;100.00;102498.22;5060422;28;20047;-62
2023/03/28 00:31:24;;;;;;;8.65;3.13;;;;;;;0.42;100.00;102497.34;5060004;28;20098;-60
2023/03/28 00:33:56;;;;;;;7.57;2.70;;;;;;;0.41;100.00;102506.00;5055260;28;20166;-60
2023/03/28 00:36:28;;;;;;;11.50;2.80;;;;;;;0.36;100.00;102510.28;5064335;28;20057;-61
2023/03/28 00:38:57;;;;;;;8.80;2.60;;;;;;;0.25;100.00;102511.97;5067860;28;20041;-60
2023/03/28 00:41:29;;;;;;;11.63;2.92;;;;;;;0.32;100.00;102508.53;5064749;28;20461;-61
2023/03/28 00:43:59;;;;;;;11.60;3.22;;;;;;;0.42;100.00;102507.69;5067808;28;20463;-60
2023/03/28 00:46:32;;;;;;;8.70;2.50;;;;;;;0.33;100.00;102511.13;5066772;28;20052;-60
2023/03/28 00:49:05;;;;;;;9.35;2.72;;;;;;;0.31;100.00;102511.97;5067418;28;20056;-60
2023/03/28 00:51:38;;;;;;;9.00;2.55;;;;;;;0.27;100.00;102502.47;5074215;28;20357;-60
2023/03/28 00:54:07;;;;;;;;;;;;;;;0.16;100.00;102505.88;5075900;28;20051;-61
2023/03/28 00:56:37;;;;;;;7.63;2.20;;;;;;;0.18;100.00;102508.47;5071365;28;19967;-61
2023/03/28 00:59:11;;;;;;;8.82;3.03;;;;;;;0.16;100.00;102512.75;5055295;28;20551;-61
2023/03/28 01:01:39;;;;;;;10.00;2.75;;;;;;;0.10;100.00;102508.44;5053482;28;20570;-60
2023/03/28 01:04:19;;;;;;;11.52;2.58;;;;;;;-0.01;100.00;102499.75;5052269;28;20106;-61
2023/03/28 01:06:53;;;;;;;6.90;2.63;;;;;;;0.02;100.00;102502.34;5064615;28;20048;-61
2023/03/28 01:09:23;;;;;;;8.20;3.20;;;;;;;0.00;100.00;102504.06;5062436;28;20466;-61
2023/03/28 01:11:53;;;;;;;11.63;3.13;;;;;;;0.01;100.00;102498.03;5062553;28;20053;-61
2023/03/28 01:14:26;;;;;;;;;;;;;;;-0.06;100.00;102496.28;5064850;28;20039;-60
2023/03/28 01:16:56;;;;;;;10.38;2.85;;;;;;;-0.13;100.00;102499.69;5061602;28;19966;-59
2023/03/28 01:19:38;;;;;;;9.90;3.30;;;;;;;-0.15;100.00;102486.75;5062282;28;20090;-60
2023/03/28 01:22:48;;;;;;;9.90;2.80;;;;;;;-0.13;100.00;102485.03;5062265;28;20043;-60
2023/03/28 01:25:55;;;;;;;8.88;2.90;;;;;;;-0.10;100.00;102485.03;5063011;28;20055;-62
2023/03/28 01:28:38;;;;;;;8.70;2.70;;;;;;;-0.14;100.00;102487.59;5064551;28;20056;-61
2023/03/28 01:31:17;;;;;;;;;;;;;;;-0.20;100.00;102480.69;5064972;28;20125;-60
2023/03/28 01:34:20;;;;;;;9.65;2.70;;;;;;;-0.13;100.00;102476.41;5061683;28;20379;-60
2023/03/28 01:37:11;;;;;;;9.95;2.95;;;;;;;-0.18;100.00;102482.41;5062348;28;20500;-60
2023/03/28 01:39:55;;;;;;;9.82;2.60;;;;;;;-0.24;100.00;102477.19;5043948;28;20492;-61
2023/03/28 01:42:30;;;;;;;10.32;3.25;;;;;;;-0.27;100.00;102477.19;5059542;28;20043;-60
2023/03/28 01:45:09;;;;;;;10.27;2.88;;;;;;;-0.27;100.00;102468.53;5064505;28;20052;-61
2023/03/28 01:47:40;;;;;;;9.63;2.75;;;;;;;-0.22;100.00;102478.09;5064751;28;20098;-60
2023/03/28 01:50:17;;;;;;;12.40;3.40;;;;;;;-0.24;100.00;102486.69;5060390;28;20052;-60
2023/03/28 01:52:54;;;;;;;12.43;3.25;;;;;;;-0.37;100.00;102478.84;5065074;28;20052;-60
2023/03/28 01:55:29;;;;;;;12.50;3.42;;;;;;;-0.39;100.00;102483.13;5057032;28;20045;-60
2023/03/28 01:58:03;;;;;;;14.05;3.53;;;;;;;-0.44;100.00;102481.38;5060848;28;20047;-60
2023/03/28 02:00:42;;;;;;;11.35;2.70;;;;;;;-0.50;100.00;102479.63;5059370;28;20125;-60
2023/03/28 02:03:17;;;;;;;7.85;2.78;;;;;;;-0.48;100.00;102475.31;5067916;28;20052;-60
2023/03/28 02:05:48;;;;;;;8.23;3.03;;;;;;;-0.49;100.00;102485.63;5067220;28;20041;-60
2023/03/28 02:08:20;;;;;;;9.90;2.65;;;;;;;-0.49;100.00;102480.47;5059657;28;20067;-61
2023/03/28 02:10:50;;;;;;;8.13;3.05;;;;;;;-0.51;100.00;102486.50;5060846;28;20051;-61
2023/03/28 02:13:23;;;;;;;9.55;2.90;;;;;;;-0.48;100.00;102484.78;5060035;28;20508;-61
2023/03/28 02:15:56;;;;;;;13.85;3.08;;;;;;;-0.46;100.00;102480.47;5060530;28;20449;-60
2023/03/28 02:18:29;;;;;;;10.18;2.92;;;;;;;-0.51;100.00;102480.47;5060862;28;20454;-60
2023/03/28 02:21:06;;;;;;;11.25;2.92;;;;;;;-0.57;100.00;102475.25;5057157;28;20779;-61
2023/03/28 02:23:41;;;;;;;11.32;3.35;;;;;;;-0.53;100.00;102474.44;5059153;28;20041;-61
2023/03/28 02:26:11;;;;;;;16.05;3.00;;;;;;;-0.55;100.00;102470.97;5061139;28;20060;-60
2023/03/28 02:28:44;;;;;;;8.73;3.00;;;;;;;-0.54;100.00;102476.13;5062917;28;20522;-60
2023/03/28 02:31:13;;;;;;;12.95;3.17;;;;;;;-0.52;100.00;102471.84;5058433;28;20426;-60
2023/03/28 02:33:45;;;;;;;;;;;;;;;-0.45;100.00;102470.19;5059244;28;20055;-60
2023/03/28 02:36:26;;;;;;;9.57;2.65;;;;;;;-0.49;100.00;102476.19;5056557;28;19928;-61
2023/03/28 02:39:11;;;;;;;8.32;2.88;;;;;;;-0.60;100.00;102465.75;5058463;28;20036;-60
2023/03/28 02:41:49;;;;;;;6.88;2.47;;;;;;;-0.62;100.00;102474.34;5061011;28;20500;-60
2023/03/28 02:44:35;;;;;;;11.57;3.22;;;;;;;-0.60;100.00;102473.53;5055551;28;20377;-60
2023/03/28 02:47:12;;;;;;;7.75;2.70;;;;;;;-0.60;100.00;102470.94;5065901;28;20090;-60
2023/03/28 02:49:53;;;;;;;11.38;2.63;;;;;;;-0.63;100.00;102473.47;5061382;28;20394;-60
2023/03/28 02:52:33;;;;;;;10.52;3.53;;;;;;;-0.59;100.00;102471.78;5057464;28;20124;-60
2023/03/28 02:55:16;;;;;;;12.13;3.55;;;;;;;-0.63;100.00;102472.63;5056285;28;20538;-60
2023/03/28 02:57:48;;;;;;;11.63;3.25;;;;;;;-0.63;100.00;102465.72;5059191;28;20041;-60
2023/03/28 03:00:19;;;;;;;9.32;2.83;;;;;;;-0.64;100.00;102466.59;5062163;28;20032;-60
2023/03/28 03:02:50;;;;;;;11.95;3.60;;;;;;;-0.64;100.00;102476.06;5060795;28;20044;-60
2023/03/28 03:05:20;;;;;;;9.83;3.43;;;;;;;-0.63;100.00;102465.72;5060708;28;20044;-60
2023/03/28 03:07:48;;;;;;;9.02;3.25;;;;;;;-0.75;100.00;102469.09;5056901;28;20056;-59
2023/03/28 03:10:20;;;;;;;12.52;3.30;;;;;;;-0.70;100.00;102471.69;5065255;28;20438;-60
2023/03/28 03:12:49;;;;;;;8.18;2.83;;;;;;;-0.66;100.00;102473.47;5058406;28;20043;-60
2023/03/28 03:15:17;;;;;;;9.40;3.72;;;;;;;-0.80;100.00;102470.78;5060806;28;20725;-60
2023/03/28 03:17:46;;;;;;;9.13;3.22;;;;;;;-0.87;100.00;102472.44;5063418;28;20139;-60
2023/03/28 03:20:14;;;;;;;12.48;4.05;;;;;;;-0.81;100.00;102478.50;5057822;28;20072;-61
2023/03/28 03:22:42;;;;;;;10.63;3.30;;;;;;;-0.89;100.00;102475.84;5064507;28;20048;-60
2023/03/28 03:25:13;;;;;;;13.10;3.63;;;;;;;-0.81;100.00;102473.34;5058126;28;20040;-61
2023/03/28 03:27:43;;;;;;;12.40;3.80;;;;;;;-0.87;100.00;102476.75;5057818;28;20059;-61
2023/03/28 03:30:12;;;;;;;13.52;3.83;;;;;;;-0.89;100.00;102474.13;5063480;28;20041;-60
2023/03/28 03:32:42;;;;;;;7.63;3.35;;;;;;;-0.91;100.00;102482.75;5061445;28;20123;-61
2023/03/28 03:35:11;;;;;;;11.00;3.40;;;;;;;-0.93;100.00;102472.38;5058419;28;20057;-60
2023/03/28 03:37:40;;;;;;;8.63;3.60;;;;;;;-0.93;100.00;102477.53;5058217;28;20543;-61
2023/03/28 03:40:09;;;;;;;12.13;4.18;;;;;;;-0.88;100.00;102482.75;5058762;28;20043;-60
2023/03/28 03:42:38;;;;;;;13.25;4.70;;;;;;;-0.90;100.00;102477.59;5056186;28;20028;-58
2023/03/28 03:45:10;;;;;;;12.07;4.78;;;;;;;-0.89;100.00;102481.88;5058118;28;20047;-58
2023/03/28 03:47:38;;;;;;;15.40;3.90;;;;;;;-0.88;100.00;102487.94;5058188;28;20049;-58
2023/03/28 03:50:08;;;;;;;13.52;3.92;;;;;;;-0.95;100.00;102479.25;5058277;28;20047;-58
2023/03/28 03:52:36;;;;;;;12.68;3.88;;;;;;;-0.91;100.00;102483.59;5061579;28;20076;-57
2023/03/28 03:55:06;;;;;;;10.13;3.90;;;;;;;-0.87;100.00;102482.78;5059873;28;20471;-58
2023/03/28 03:57:34;;;;;;;13.48;4.13;;;;;;;-0.93;100.00;102477.53;5063616;28;20050;-58
2023/03/28 04:00:10;;;;;;;12.82;4.32;;;;;;;-0.92;100.00;102479.28;5061113;28;20151;-58
2023/03/28 04:02:40;;;;;;;8.45;3.80;;;;;;;-0.91;100.00;102478.44;5057921;28;20102;-58
2023/03/28 04:05:09;;;;;;;9.30;3.72;;;;;;;-0.94;100.00;102481.00;5055213;28;20051;-58
2023/03/28 04:07:38;;;;;;;13.30;4.63;;;;;;;-1.00;100.00;102478.34;5060918;28;20086;-58
2023/03/28 04:10:07;;;;;;;9.18;3.42;;;;;;;-1.05;100.00;102474.84;5061813;28;20390;-58
2023/03/28 04:12:35;;;;;;;15.18;4.10;;;;;;;-1.08;100.00;102478.28;5055249;28;20119;-58
2023/03/28 04:15:04;;;;;;;10.02;4.78;;;;;;;-1.09;100.00;102480.81;5056941;28;20505;-58
2023/03/28 04:17:33;;;;;;;10.52;4.32;;;;;;;-1.07;100.00;102477.41;5059866;28;20040;-58
2023/03/28 04:20:10;;;;;;;8.50;3.70;;;;;;;-1.10;100.00;102477.41;5061756;28;20041;-58
2023/03/28 04:22:38;;;;;;;11.15;4.15;;;;;;;-1.18;100.00;102483.34;5060967;28;20403;-58
2023/03/28 04:25:13;;;;;;;9.43;4.10;;;;;;;-1.15;100.00;102480.78;5062394;28;20052;-58
2023/03/28 04:27:45;;;;;;;9.90;4.18;;;;;;;-1.10;100.00;102479.97;5060015;28;20072;-57
2023/03/28 04:30:17;;;;;;;12.25;3.97;;;;;;;-1.14;100.00;102475.63;5060918;28;20464;-57
2023/03/28 04:32:48;;;;;;;9.95;4.03;;;;;;;-1.16;100.00;102481.63;5062126;28;20076;-58
2023/03/28 04:35:18;;;;;;;8.50;3.92;;;;;;;-1.18;100.00;102479.03;5066876;28;20044;-57
2023/03/28 04:37:48;;;;;;;11.15;3.90;;;;;;;-1.07;100.00;102487.75;5063820;28;20408;-57
2023/03/28 04:40:16;;;;;;;10.68;4.55;;;;;;;-0.96;100.00;102482.69;5055380;28;20145;-57
2023/03/28 04:42:44;;;;;;;11.32;4.60;;;;;;;-1.09;100.00;102486.88;5069601;28;20122;-58
2023/03/28 04:45:13;;;;;;;9.15;3.90;;;;;;;-1.12;100.00;102485.97;5067990;28;20057;-59
2023/03/28 04:47:48;;;;;;;8.63;4.00;;;;;;;-1.15;100.00;102480.78;5071801;28;20055;-58
2023/03/28 04:50:18;;;;;;;11.98;4.25;;;;;;;-1.17;100.00;102478.19;5072087;28;20750;-58
2023/03/28 04:52:46;;;;;;;11.35;4.65;;;;;;;-1.13;100.00;102479.94;5070330;28;20059;-60
2023/03/28 04:55:15;;;;;;;11.25;4.80;;;;;;;-1.06;100.00;102484.31;5061582;28;20053;-61
2023/03/28 04:57:43;;;;;;;10.35;4.00;;;;;;;-1.09;100.00;102484.28;5051234;28;20048;-61
2023/03/28 05:00:15;;;;;;;13.65;4.82;;;;;;;-1.18;100.00;102484.19;5047439;28;20049;-60
2023/03/28 05:02:44;;;;;;;12.30;4.47;;;;;;;-1.20;100.00;102485.88;5048075;28;20052;-60
2023/03/28 05:05:12;;;;;;;13.23;5.22;;;;;;;-1.16;100.00;102489.38;5051475;28;20064;-60
2023/03/28 05:07:42;;;;;;;10.55;4.88;;;;;;;-1.22;100.00;102488.47;5058279;28;20044;-60
2023/03/28 05:10:10;;;;;;;9.93;4.20;;;;;;;-1.13;100.00;102491.97;5061573;28;20446;-60
2023/03/28 05:12:41;;;;;;;12.52;4.57;;;;;;;-1.24;100.00;102495.34;5062099;28;20040;-60
2023/03/28 05:15:09;;;;;;;13.05;5.35;;;;;;;-1.18;100.00;102493.69;5060303;28;20066;-60
2023/03/28 05:17:49;;;;;;;14.02;5.03;;;;;;;-1.18;100.00;102504.00;5060869;28;20033;-60
2023/03/28 05:20:18;;;;;;;11.07;4.97;;;;;;;-1.23;100.00;102497.06;5057688;28;20729;-61
2023/03/28 05:22:47;;;;;;;10.23;5.05;;;;;;;-1.29;100.00;102502.16;5059685;28;20052;-60
2023/03/28 05:25:16;;;;;;;10.35;4.80;;;;;;;-1.25;100.00;102500.50;5064158;28;20736;-60
2023/03/28 05:27:45;;;;;;;11.40;5.20;;;;;;;-1.36;100.00;102502.94;5062256;28;20556;-61
2023/03/28 05:30:14;;;;;;;10.40;5.22;;;;;;;-1.40;100.00;102501.19;5059887;28;20056;-61
2023/03/28 05:32:42;;;;;;;9.80;4.82;;;;;;;-1.32;100.00;102509.88;5058389;28;20417;-61
2023/03/28 05:35:12;;;;;;;12.02;4.88;;;;;;;-1.26;100.00;102511.66;5057157;28;20135;-60
2023/03/28 05:37:40;;;;;;;11.30;5.07;;;;;;;-1.26;100.00;102517.69;5059264;28;20098;-60
2023/03/28 05:40:16;;;;;;;16.05;4.72;;;;;;;-1.26;100.00;102511.66;5059116;28;20048;-60
2023/03/28 05:42:46;;;;;;;11.20;5.18;;;;;;;-1.26;100.00;102512.50;5057703;28;20052;-61
2023/03/28 05:45:14;;;;;;;20.73;5.53;;;;;;;-1.23;100.00;102517.72;5061136;28;20098;-61
2023/03/28 05:47:45;;;;;;;10.45;4.82;;;;;;;-1.34;100.00;102519.31;5060927;28;20438;-60
2023/03/28 05:50:13;;;;;;;14.20;5.18;;;;;;;-1.26;100.00;102516.81;5061623;28;20044;-61
2023/03/28 05:52:41;;;;;;;9.73;4.57;;;;;;;-1.26;100.00;102519.41;5060885;28;20531;-61
2023/03/28 05:55:10;;;;;;;9.75;5.03;;;;;;;-1.30;100.00;102521.06;5057416;28;20453;-60
2023/03/28 05:57:42;;;;;;;13.90;5.20;;;;;;;-1.34;100.00;102529.63;5061944;28;20048;-61
2023/03/28 06:00:12;;;;;;;9.48;4.13;;;;;;;-1.22;100.00;102529.78;5059429;28;20107;-60
2023/03/28 06:02:42;;;;;;;12.27;5.18;;;;;;;-1.28;100.00;102534.88;5061435;28;20722;-60
2023/03/28 06:05:11;;;;;;;9.35;5.10;;;;;;;-1.25;100.00;102534.06;5061485;28;20508;-61
2023/03/28 06:07:39;;;;;;;12.32;4.80;;;;;;;-1.14;100.00;102526.44;5061916;28;20059;-60
2023/03/28 06:10:11;;;;;;;13.23;5.45;;;;;;;-1.21;100.00;102528.06;5059794;28;20420;-61
2023/03/28 06:12:41;;;;;;;13.00;6.00;;;;;;;-1.22;100.00;102527.19;5058039;28;20043;-60
2023/03/28 06:15:11;;;;;;;12.65;5.88;;;;;;;-1.16;100.00;102523.81;5062192;28;20141;-60
2023/03/28 06:17:39;;;;;;;11.95;5.32;;;;;;;-1.14;100.00;102526.44;5059380;28;20053;-60
2023/03/28 06:20:09;;;;;;;13.10;5.05;;;;;;;-1.07;100.00;102523.91;5065871;28;20158;-61
2023/03/28 06:22:40;;;;;;;14.10;4.97;;;;;;;-0.92;100.00;102525.78;5060689;28;20036;-61
2023/03/28 06:25:10;;;;;;;14.30;5.15;;;;;;;-0.94;100.00;102524.91;5065390;28;20045;-60
2023/03/28 06:27:38;;;;;;;9.35;4.68;;;;;;;-0.97;100.00;102519.69;5061108;28;20467;-60
2023/03/28 06:30:09;;;;;;;11.05;5.00;;;;;;;-0.90;100.00;102520.63;5056234;28;20617;-61
2023/03/28 06:32:37;;;;;;;10.73;5.00;;;;;;;-0.94;100.00;102524.03;5059620;28;20548;-61
2023/03/28 06:35:06;;;;;;;11.15;5.28;;;;;;;-0.89;100.00;102528.38;5062062;28;20064;-61
2023/03/28 06:37:34;;;;;;;12.90;5.30;;;;;;;-0.76;100.00;102519.03;5065546;28;20115;-61
2023/03/28 06:40:07;;;;;;;11.63;5.18;;;;;;;-0.60;100.00;102522.63;5069166;28;20055;-61
2023/03/28 06:42:36;;;;;;;10.10;4.95;;;;;;;-0.53;100.00;102521.81;5070894;28;20505;-61
2023/03/28 06:45:04;;;;;;;14.93;5.00;;;;;;;-0.47;100.00;102521.00;5073459;28;20060;-61
2023/03/28 06:47:34;;;;;;;10.02;5.00;;;;;;;-0.43;100.00;102529.66;5073187;28;20406;-62
2023/03/28 06:50:02;;;;;;;11.20;5.05;;;;;;;-0.47;100.00;102525.31;5071835;28;20052;-62
2023/03/28 06:52:30;;;;;;;12.02;5.45;;;;;;;-0.46;100.00;102527.00;5070482;28;20040;-62
2023/03/28 06:54:59;;;;;;;12.70;5.18;;;;;;;-0.47;100.00;102520.13;5054289;28;20056;-62
2023/03/28 06:57:27;;;;;;;14.82;5.25;;;;;;;-0.43;100.00;102525.34;5052934;28;20053;-58
2023/03/28 06:59:55;;;;;;;12.32;5.03;;;;;;;-0.37;100.00;102522.81;5053213;28;20504;-59
2023/03/28 07:02:23;;;;;;;16.60;5.68;;;;;;;-0.31;100.00;102523.69;5050278;28;20399;-58
2023/03/28 07:04:54;;;;;;;13.63;6.10;;;;;;;-0.22;100.00;102522.06;5049841;28;20116;-59
2023/03/28 07:07:22;;;;;;;12.10;6.15;;;;;;;-0.15;100.00;102529.84;5060912;28;20063;-59
2023/03/28 07:09:53;;;;;;;16.98;6.03;;;;;;;-0.06;100.00;102530.75;5063734;28;20503;-59
2023/03/28 07:12:21;;;;;;;15.02;6.65;;;;;;;0.08;100.00;102523.09;5058373;28;20080;-59
2023/03/28 07:14:50;;;;;;;11.73;5.18;;;;;;;0.21;100.00;102528.34;5059120;28;20098;-59
2023/03/28 07:17:18;;;;;;;21.00;5.82;;;;;;;0.36;100.00;102536.16;5054923;28;20484;-59
2023/03/28 07:19:49;;;;;;;18.20;5.78;;;;;;;0.49;100.00;102532.78;5062094;28;20119;-59
2023/03/28 07:22:19;;;;;;;13.27;6.38;;;;;;;0.67;100.00;102531.09;5061937;28;20127;-59
2023/03/28 07:24:47;;;;;;;11.43;5.15;;;;;;;0.84;100.00;102537.19;5058176;28;20056;-57
2023/03/28 07:27:15;;;;;;;14.40;5.40;;;;;;;1.06;100.00;102539.81;5066784;28;20557;-57
2023/03/28 07:29:44;;;;;;;12.68;5.30;;;;;;;1.21;100.00;102532.94;5067672;28;20129;-59
2023/03/28 07:32:13;;;;;;;13.65;5.25;;;;;;;1.35;100.00;102546.78;5072208;28;20044;-58
2023/03/28 07:34:41;;;;;;;10.73;5.25;;;;;;;1.45;100.00;102540.72;5070117;28;20083;-59
2023/03/28 07:37:10;;;;;;;10.98;4.97;;;;;;;1.59;100.00;102543.31;5068754;28;20123;-58
2023/03/28 07:39:42;;;;;;;8.55;4.80;;;;;;;1.67;100.00;102535.53;5070973;28;20044;-58
2023/03/28 07:42:10;;;;;;;;;;;;;;;1.79;100.00;102547.63;5072580;28;20434;-58
2023/03/28 07:44:42;;;;;;;14.27;4.97;;;;;;;1.89;100.00;102538.97;5067049;28;19924;-58
2023/03/28 07:47:10;;;;;;;10.27;5.15;;;;;;;2.00;100.00;102547.59;5052501;28;20068;-58
2023/03/28 07:49:39;;;;;;;11.15;4.80;;;;;;;2.12;100.00;102556.22;5052053;28;20437;-58
2023/03/28 07:52:08;;;;;;;11.20;5.18;;;;;;;2.23;100.00;102553.59;5051732;28;20033;-59
2023/03/28 07:54:41;;;;;;;13.82;5.30;;;;;;;2.34;100.00;102555.28;5059855;28;20056;-59
2023/03/28 07:57:09;;;;;;;11.80;5.00;;;;;;;2.50;100.00;102556.09;5061474;28;20621;-59
2023/03/28 07:59:37;;;;;;;10.70;5.32;;;;;;;2.75;100.00;102557.72;5061838;28;20040;-58
2023/03/28 08:02:05;;;;;;;10.57;4.90;;;;;;;2.96;100.00;102557.59;5059028;28;20333;-58
2023/03/28 08:04:34;;;;;;;13.80;5.45;;;;;;;3.19;100.00;102549.66;5061557;28;20127;-59
2023/03/28 08:07:02;;;;;;;10.88;5.88;;;;;;;3.45;100.00;102552.94;5060006;28;20075;-59
2023/03/28 08:09:30;;;;;;;14.57;5.05;;;;;;;3.65;100.00;102553.63;5060251;28;20048;-59
2023/03/28 08:12:00;;;;;;;9.98;5.07;;;;;;;3.85;100.00;102553.44;5061972;28;20142;-60
2023/03/28 08:14:28;;;;;;;10.02;4.10;;;;;;;4.08;100.00;102557.56;5063457;28;20552;-59
2023/03/28 08:16:57;;;;;;;11.55;4.38;;;;;;;4.32;100.00;102553.84;5058060;28;20169;-59
2023/03/28 08:19:25;;;;;;;14.82;4.32;;;;;;;4.50;100.00;102550.13;5062217;28;20485;-59
2023/03/28 08:21:53;;;;;;;10.75;3.88;;;;;;;4.72;100.00;102550.72;5057823;28;20040;-58
2023/03/28 08:24:21;;;;;;;11.52;3.85;;;;;;;4.82;100.00;102548.00;5055577;28;20040;-58
2023/03/28 08:27:04;;;;;;;9.40;4.15;;;;;;;4.97;100.00;102549.53;5062601;28;20094;-59
2023/03/28 08:29:32;;;;;;;10.82;3.50;;;;;;;5.04;100.00;102551.16;5069160;28;20045;-59
2023/03/28 08:32:00;;;;;;;10.50;3.28;;;;;;;5.17;100.00;102552.69;5059856;28;20102;-59
2023/03/28 08:34:28;;;;;;;11.95;3.13;;;;;;;5.29;100.00;102551.66;5055597;28;20060;-58
2023/03/28 08:36:59;;;;;;;9.75;3.08;;;;;;;5.46;100.00;102553.13;5063867;28;20566;-58
2023/03/28 08:39:28;;;;;;;9.00;2.83;;;;;;;5.66;100.00;102548.44;5067569;28;20055;-59
2023/03/28 08:42:24;;;;;;;11.85;3.15;;;;;;;5.92;100.00;102547.97;5067408;28;20053;-58
2023/03/28 08:45:11;;;;;;;8.57;3.20;;;;;;;6.19;100.00;102542.25;5053650;28;20487;-59
2023/03/28 08:47:52;;;;;;;9.65;3.15;;;;;;;6.29;100.00;102545.56;5067854;28;20056;-58
2023/03/28 08:50:28;;;;;;;8.02;2.75;;;;;;;6.31;100.00;102542.00;5071047;28;20110;-59
2023/03/28 08:52:56;;;;;;;7.97;3.33;;;;;;;6.11;100.00;102547.66;5070783;28;20453;-59
2023/03/28 08:55:32;;;;;;;6.70;3.10;;;;;;;6.11;100.00;102545.03;5067439;28;20052;-59
2023/03/28 08:58:03;;;;;;;10.05;2.92;;;;;;;6.27;100.00;102540.34;5056400;28;20033;-59
2023/03/28 09:00:33;;;;;;;8.38;2.10;;;;;;;6.12;100.00;102531.06;5056832;28;20550;-62
2023/03/28 09:03:01;;;;;;;7.35;3.10;;;;;;;6.34;100.00;102535.88;5054172;28;20051;-61
2023/03/28 09:05:40;;;;;;;8.70;2.47;;;;;;;6.45;100.00;102531.31;5058519;28;20044;-61
2023/03/28 09:08:27;;;;;;;7.60;2.30;;;;;;;6.67;100.00;102531.69;5057589;28;20499;-62
2023/03/28 09:11:03;;;;;;;12.63;4.25;;;;;;;6.59;100.00;102531.84;5060995;28;20041;-61
2023/03/28 09:13:42;;;;;;;9.20;2.20;;;;;;;6.65;100.00;102528.25;5060260;28;20500;-62
2023/03/28 09:16:25;;;;;;;8.35;2.55;;;;;;;6.82;100.00;102527.88;5060914;28;20052;-62
2023/03/28 09:19:27;;;;;;;7.68;2.67;;;;;;;6.99;100.00;102522.25;5058319;28;20128;-62
2023/03/28 09:22:15;;;;;;;7.10;2.50;;;;;;;7.04;100.00;102527.41;5061981;28;20076;-63
2023/03/28 09:24:56;;;;;;;7.32;1.92;;;;;;;6.95;100.00;102525.84;5058118;28;21392;-62
2023/03/28 09:27:32;;;;;;;5.78;1.83;;;;;;;7.03;100.00;102521.28;5052016;28;20053;-61
2023/03/28 09:30:17;;;;;;;7.80;1.90;;;;;;;7.01;100.00;102519.59;5051713;28;20052;-61
2023/03/28 09:32:46;;;;;;;8.80;2.05;;;;;;;7.26;100.00;102519.88;5063100;28;20454;-62
2023/03/28 09:35:17;;;;;;;7.50;2.63;;;;;;;7.44;100.00;102508.97;5061774;28;20402;-62
2023/03/28 09:37:49;;;;;;;7.63;2.20;;;;;;;7.70;100.00;102517.03;5062213;28;20124;-62
2023/03/28 09:40:22;;;;;;;8.93;2.58;;;;;;;7.86;100.00;102509.63;5059873;28;20542;-63
2023/03/28 09:43:00;;;;;;;7.00;2.25;;;;;;;8.02;99.30;102512.69;5060911;28;20068;-63
2023/03/28 09:45:43;;;;;;;9.18;2.40;;;;;;;8.06;94.20;102514.34;5056218;28;20077;-63
2023/03/28 09:48:17;;;;;;;6.65;2.15;;;;;;;8.23;95.14;102509.44;5058405;28;20044;-64
2023/03/28 09:50:47;;;;;;;6.38;2.47;;;;;;;8.32;97.92;102508.34;5058917;28;20094;-63
2023/03/28 09:53:22;;;;;;;7.20;2.40;;;;;;;8.22;92.68;102507.75;5059310;28;20095;-62
2023/03/28 09:55:51;;;;;;;5.80;2.00;;;;;;;8.43;93.37;102502.78;5057280;28;20530;-62
2023/03/28 09:58:47;;;;;;;7.82;2.67;;;;;;;8.83;94.64;102498.09;5061781;28;20508;-62
2023/03/28 10:01:33;;;;;;;7.43;2.40;;;;;;;8.85;86.43;102496.28;5063915;28;20127;-63
2023/03/28 10:04:09;;;;;;;9.43;2.22;;;;;;;8.74;83.92;102494.88;5059483;28;20435;-63
2023/03/28 10:06:38;;;;;;;8.73;2.22;;;;;;;8.80;82.04;102491.19;5055802;28;20048;-62
2023/03/28 10:09:16;;;;;;;7.07;1.92;;;;;;;8.89;83.65;102488.28;5060257;28;20044;-63
2023/03/28 10:11:48;;;;;;;10.50;2.22;;;;;;;9.05;83.43;102485.16;5055299;28;20078;-63
2023/03/28 10:14:34;;;;;;;6.15;1.95;;;;;;;8.73;80.09;102482.66;5059221;28;20700;-63
2023/03/28 10:17:06;;;;;;;8.93;1.90;;;;;;;8.25;75.37;102481.44;5058502;28;20119;-63
2023/03/28 10:19:35;;;;;;;;;;;;;;;8.56;78.97;102469.19;5065323;28;20475;-63
2023/03/28 10:22:11;;;;;;;6.20;2.20;;;;;;;8.62;77.52;102475.13;5062534;28;20275;-64
2023/03/28 10:24:40;;;;;;;7.30;2.13;;;;;;;8.79;79.02;102469.34;5061789;28;20036;-63
2023/03/28 10:27:16;;;;;;;6.70;2.60;;;;;;;8.95;78.14;102461.81;5059460;28;20045;-64
2023/03/28 10:29:46;;;;;;;7.70;2.30;;;;;;;8.95;77.74;102464.44;5060439;28;20051;-64
2023/03/28 10:32:25;;;;;;;9.80;3.20;;;;;;;8.74;75.52;102459.88;5063647;28;20049;-64
2023/03/28 10:35:01;;;;;;;9.13;2.78;;;;;;;8.84;79.56;102456.09;5057709;28;20055;-64
2023/03/28 10:37:31;;;;;;;8.15;2.47;;;;;;;8.72;76.82;102459.94;5054861;28;20056;-63
2023/03/28 10:40:03;;;;;;;9.75;2.70;;;;;;;8.44;82.83;102450.28;5056826;28;20105;-64
2023/03/28 10:42:40;;;;;;;9.20;2.60;;;;;;;8.74;80.95;102446.78;5063805;28;20136;-63
2023/03/28 10:45:19;;;;;;;8.95;2.45;;;;;;;8.60;75.78;102441.97;5057830;28;20492;-64
2023/03/28 10:47:51;;;;;;;7.40;2.17;;;;;;;8.42;76.67;102436.34;5054028;28;20048;-64
2023/03/28 10:50:27;;;;;;;6.50;2.65;;;;;;;8.40;77.44;102426.84;5058623;28;20095;-64
2023/03/28 10:53:09;;;;;;;7.95;2.65;;;;;;;8.75;79.59;102425.75;5060053;28;20415;-64
2023/03/28 10:55:41;;;;;;;8.73;2.85;;;;;;;8.82;76.58;102423.81;5064227;28;20459;-64
2023/03/28 10:58:19;;;;;;;9.70;2.90;;;;;;;8.96;78.50;102424.19;5063135;28;20542;-63
2023/03/28 11:00:55;;;;;;;7.13;2.15;;;;;;;8.68;75.61;102418.13;5058801;28;20422;-63
2023/03/28 11:03:41;;;;;;;10.40;2.72;;;;;;;8.80;74.66;102409.88;5063876;28;20094;-63
2023/03/28 11:06:17;;;;;;;10.77;2.55;;;;;;;9.11;76.30;102411.47;5069673;28;20094;-64
2023/03/28 11:09:02;;;;;;;10.98;2.35;;;;;;;9.01;75.07;102403.03;5063276;28;20037;-63
2023/03/28 11:11:43;;;;;;;4.93;2.22;;;;;;;8.61;73.66;102399.97;5058489;28;20041;-64
2023/03/28 11:14:19;;;;;;;4.97;2.00;;;;;;;8.82;74.80;102396.69;5061091;28;20074;-63
2023/03/28 11:16:58;;;;;;;5.68;2.03;;;;;;;8.82;74.43;102396.69;5063553;28;20053;-64
2023/03/28 11:20:07;;;;;;;7.75;2.90;;;;;;;8.82;76.48;102396.69;5060113;28;20053;-64
2023/03/28 11:22:46;;;;;;;6.80;1.90;;;;;;;9.03;72.86;102392.50;5061469;28;20131;-64
2023/03/28 11:25:42;;;;;;;5.78;1.88;;;;;;;8.78;73.87;102386.31;5058875;28;21081;-65
2023/03/28 11:28:19;;;;;;;3.33;1.67;;;;;;;8.98;74.35;102383.94;5059179;28;20043;-64
2023/03/28 11:30:52;;;;;;;6.22;2.03;;;;;;;9.03;73.18;102376.75;5061748;28;20069;-64
2023/03/28 11:33:26;;;;;;;8.73;1.90;;;;;;;9.03;73.98;102374.13;5057770;28;20048;-64
2023/03/28 11:36:01;;;;;;;6.25;1.92;;;;;;;8.72;72.39;102369.91;5057085;28;20056;-66
2023/03/28 11:38:35;;;;;;;6.63;1.77;;;;;;;8.98;76.49;102365.56;5058178;28;20048;-64
2023/03/28 11:41:12;;;;;;;8.30;2.17;;;;;;;9.09;77.71;102361.66;5058488;28;20073;-65
2023/03/28 11:43:46;;;;;;;6.28;2.08;;;;;;;9.19;77.83;102358.69;5054573;28;20059;-63
2023/03/28 11:46:20;;;;;;;9.77;2.85;;;;;;;9.01;79.59;102353.16;5062106;28;20032;-61